sensor_id;sensor_type;location;lat;lon;timestamp;P1;durP1;ratioP1;P2;durP2;ratioP2
16822;SDS011;8528;49.976;11.858;2024-01-27T00:00:53;6.73;;;2.63;;
16822;SDS011;8528;49.976;11.858;2024-01-27T00:03:20;4.70;;;3.17;;
16822;SDS011;8528;49.976;11.858;2024-01-27T00:05:47;4.90;;;3.07;;
16822;SDS011;8528;49.976;11.858;2024-01-27T00:08:14;8.73;;;3.77;;
16822;SDS011;8528;49.976;11.858;2024-01-27T00:10:41;7.03;;;3.43;;
16822;SDS011;8528;49.976;11.858;2024-01-27T00:13:07;6.23;;;3.80;;
16822;SDS011;8528;49.976;11.858;2024-01-27T00:15:34;7.00;;;3.90;;
16822;SDS011;8528;49.976;11.858;2024-01-27T00:18:01;6.00;;;3.60;;
16822;SDS011;8528;49.976;11.858;2024-01-27T00:20:29;12.27;;;3.60;;
16822;SDS011;8528;49.976;11.858;2024-01-27T00:22:55;9.53;;;3.40;;
16822;SDS011;8528;49.976;11.858;2024-01-27T00:25:22;8.93;;;3.97;;
16822;SDS011;8528;49.976;11.858;2024-01-27T00:27:49;7.40;;;4.73;;
16822;SDS011;8528;49.976;11.858;2024-01-27T00:30:16;8.80;;;3.53;;
16822;SDS011;8528;49.976;11.858;2024-01-27T00:32:43;8.43;;;4.10;;
16822;SDS011;8528;49.976;11.858;2024-01-27T00:35:10;7.30;;;3.80;;
16822;SDS011;8528;49.976;11.858;2024-01-27T00:37:41;6.83;;;4.37;;
16822;SDS011;8528;49.976;11.858;2024-01-27T00:40:08;6.57;;;3.53;;
16822;SDS011;8528;49.976;11.858;2024-01-27T00:42:40;11.10;;;4.27;;
16822;SDS011;8528;49.976;11.858;2024-01-27T00:45:07;6.90;;;3.90;;
16822;SDS011;8528;49.976;11.858;2024-01-27T00:47:34;7.97;;;3.87;;
16822;SDS011;8528;49.976;11.858;2024-01-27T00:50:01;7.13;;;3.43;;
16822;SDS011;8528;49.976;11.858;2024-01-27T00:52:29;9.03;;;3.80;;
16822;SDS011;8528;49.976;11.858;2024-01-27T00:54:56;10.60;;;4.23;;
16822;SDS011;8528;49.976;11.858;2024-01-27T00:57:23;10.43;;;3.70;;
16822;SDS011;8528;49.976;11.858;2024-01-27T00:59:50;8.03;;;4.27;;
16822;SDS011;8528;49.976;11.858;2024-01-27T01:02:17;8.90;;;4.10;;
16822;SDS011;8528;49.976;11.858;2024-01-27T01:04:44;10.60;;;3.90;;
16822;SDS011;8528;49.976;11.858;2024-01-27T01:07:11;10.77;;;3.93;;
16822;SDS011;8528;49.976;11.858;2024-01-27T01:09:38;11.37;;;3.97;;
16822;SDS011;8528;49.976;11.858;2024-01-27T01:12:05;7.23;;;3.80;;
16822;SDS011;8528;49.976;11.858;2024-01-27T01:14:33;8.70;;;3.97;;
16822;SDS011;8528;49.976;11.858;2024-01-27T01:17:00;5.77;;;4.00;;
16822;SDS011;8528;49.976;11.858;2024-01-27T01:19:26;8.80;;;3.87;;
16822;SDS011;8528;49.976;11.858;2024-01-27T01:21:53;10.10;;;4.60;;
16822;SDS011;8528;49.976;11.858;2024-01-27T01:24:20;12.37;;;4.00;;
16822;SDS011;8528;49.976;11.858;2024-01-27T01:26:47;9.23;;;4.00;;
16822;SDS011;8528;49.976;11.858;2024-01-27T01:29:14;7.43;;;3.73;;
16822;SDS011;8528;49.976;11.858;2024-01-27T01:31:42;8.00;;;4.37;;
16822;SDS011;8528;49.976;11.858;2024-01-27T01:34:10;6.53;;;3.50;;
16822;SDS011;8528;49.976;11.858;2024-01-27T01:36:37;10.43;;;4.17;;
16822;SDS011;8528;49.976;11.858;2024-01-27T01:39:04;8.03;;;4.17;;
16822;SDS011;8528;49.976;11.858;2024-01-27T01:41:32;6.73;;;4.33;;
16822;SDS011;8528;49.976;11.858;2024-01-27T01:43:59;9.17;;;4.63;;
16822;SDS011;8528;49.976;11.858;2024-01-27T01:46:27;9.70;;;4.00;;
16822;SDS011;8528;49.976;11.858;2024-01-27T01:48:54;11.03;;;3.93;;
16822;SDS011;8528;49.976;11.858;2024-01-27T01:51:22;11.50;;;4.40;;
16822;SDS011;8528;49.976;11.858;2024-01-27T01:53:49;9.23;;;4.00;;
16822;SDS011;8528;49.976;11.858;2024-01-27T01:56:17;5.53;;;4.13;;
16822;SDS011;8528;49.976;11.858;2024-01-27T01:58:44;9.17;;;4.40;;
16822;SDS011;8528;49.976;11.858;2024-01-27T02:01:11;11.03;;;4.40;;
16822;SDS011;8528;49.976;11.858;2024-01-27T02:03:39;12.40;;;4.33;;
16822;SDS011;8528;49.976;11.858;2024-01-27T02:06:06;14.77;;;4.90;;
16822;SDS011;8528;49.976;11.858;2024-01-27T02:08:33;8.60;;;3.93;;
16822;SDS011;8528;49.976;11.858;2024-01-27T02:11:00;7.60;;;4.50;;
16822;SDS011;8528;49.976;11.858;2024-01-27T02:13:29;11.87;;;4.37;;
16822;SDS011;8528;49.976;11.858;2024-01-27T02:15:55;9.13;;;4.30;;
16822;SDS011;8528;49.976;11.858;2024-01-27T02:18:22;5.57;;;4.00;;
16822;SDS011;8528;49.976;11.858;2024-01-27T02:20:50;9.40;;;4.37;;
16822;SDS011;8528;49.976;11.858;2024-01-27T02:23:17;9.07;;;4.03;;
16822;SDS011;8528;49.976;11.858;2024-01-27T02:25:44;7.97;;;4.33;;
16822;SDS011;8528;49.976;11.858;2024-01-27T02:28:32;9.80;;;4.10;;
16822;SDS011;8528;49.976;11.858;2024-01-27T02:30:59;7.33;;;4.70;;
16822;SDS011;8528;49.976;11.858;2024-01-27T02:33:26;14.93;;;4.70;;
16822;SDS011;8528;49.976;11.858;2024-01-27T02:36:14;8.43;;;4.10;;
16822;SDS011;8528;49.976;11.858;2024-01-27T02:38:41;10.03;;;4.30;;
16822;SDS011;8528;49.976;11.858;2024-01-27T02:41:09;10.97;;;3.97;;
16822;SDS011;8528;49.976;11.858;2024-01-27T02:43:37;8.37;;;4.47;;
16822;SDS011;8528;49.976;11.858;2024-01-27T02:46:06;10.33;;;4.33;;
16822;SDS011;8528;49.976;11.858;2024-01-27T02:48:34;7.20;;;4.07;;
16822;SDS011;8528;49.976;11.858;2024-01-27T02:51:04;10.17;;;4.33;;
16822;SDS011;8528;49.976;11.858;2024-01-27T02:53:31;15.77;;;5.30;;
16822;SDS011;8528;49.976;11.858;2024-01-27T02:55:58;8.70;;;4.33;;
16822;SDS011;8528;49.976;11.858;2024-01-27T02:58:25;12.77;;;4.30;;
16822;SDS011;8528;49.976;11.858;2024-01-27T03:00:52;6.97;;;3.77;;
16822;SDS011;8528;49.976;11.858;2024-01-27T03:03:19;8.80;;;4.77;;
16822;SDS011;8528;49.976;11.858;2024-01-27T03:05:46;14.53;;;4.20;;
16822;SDS011;8528;49.976;11.858;2024-01-27T03:08:14;7.50;;;4.00;;
16822;SDS011;8528;49.976;11.858;2024-01-27T03:10:41;8.07;;;3.67;;
16822;SDS011;8528;49.976;11.858;2024-01-27T03:13:08;10.70;;;3.93;;
16822;SDS011;8528;49.976;11.858;2024-01-27T03:15:35;8.00;;;3.70;;
16822;SDS011;8528;49.976;11.858;2024-01-27T03:18:04;9.03;;;4.00;;
16822;SDS011;8528;49.976;11.858;2024-01-27T03:20:31;11.73;;;4.00;;
16822;SDS011;8528;49.976;11.858;2024-01-27T03:22:58;6.93;;;3.70;;
16822;SDS011;8528;49.976;11.858;2024-01-27T03:25:25;13.03;;;3.70;;
16822;SDS011;8528;49.976;11.858;2024-01-27T03:27:53;10.07;;;4.30;;
16822;SDS011;8528;49.976;11.858;2024-01-27T03:30:19;7.60;;;3.60;;
16822;SDS011;8528;49.976;11.858;2024-01-27T03:32:47;7.27;;;3.73;;
16822;SDS011;8528;49.976;11.858;2024-01-27T03:35:15;9.57;;;4.33;;
16822;SDS011;8528;49.976;11.858;2024-01-27T03:37:42;8.80;;;4.03;;
16822;SDS011;8528;49.976;11.858;2024-01-27T03:40:09;10.03;;;4.27;;
16822;SDS011;8528;49.976;11.858;2024-01-27T03:42:37;10.83;;;4.20;;
16822;SDS011;8528;49.976;11.858;2024-01-27T03:45:04;10.90;;;4.20;;
16822;SDS011;8528;49.976;11.858;2024-01-27T03:47:32;9.53;;;3.90;;
16822;SDS011;8528;49.976;11.858;2024-01-27T03:49:58;9.00;;;3.43;;
16822;SDS011;8528;49.976;11.858;2024-01-27T03:52:26;11.00;;;4.07;;
16822;SDS011;8528;49.976;11.858;2024-01-27T03:54:52;6.07;;;3.73;;
16822;SDS011;8528;49.976;11.858;2024-01-27T03:57:19;11.73;;;4.67;;
16822;SDS011;8528;49.976;11.858;2024-01-27T03:59:47;12.30;;;4.40;;
16822;SDS011;8528;49.976;11.858;2024-01-27T04:02:14;8.57;;;3.77;;
16822;SDS011;8528;49.976;11.858;2024-01-27T04:04:40;10.17;;;4.07;;
16822;SDS011;8528;49.976;11.858;2024-01-27T04:07:08;8.50;;;4.60;;
16822;SDS011;8528;49.976;11.858;2024-01-27T04:09:35;7.53;;;4.20;;
16822;SDS011;8528;49.976;11.858;2024-01-27T04:12:02;15.03;;;4.67;;
16822;SDS011;8528;49.976;11.858;2024-01-27T04:14:29;10.67;;;4.37;;
16822;SDS011;8528;49.976;11.858;2024-01-27T04:16:56;9.03;;;4.27;;
16822;SDS011;8528;49.976;11.858;2024-01-27T04:19:23;6.03;;;3.83;;
16822;SDS011;8528;49.976;11.858;2024-01-27T04:21:50;10.00;;;3.90;;
16822;SDS011;8528;49.976;11.858;2024-01-27T04:24:17;8.17;;;3.97;;
16822;SDS011;8528;49.976;11.858;2024-01-27T04:26:43;6.87;;;4.07;;
16822;SDS011;8528;49.976;11.858;2024-01-27T04:29:10;12.57;;;3.83;;
16822;SDS011;8528;49.976;11.858;2024-01-27T04:31:41;7.73;;;3.77;;
16822;SDS011;8528;49.976;11.858;2024-01-27T04:34:08;8.30;;;3.90;;
16822;SDS011;8528;49.976;11.858;2024-01-27T04:36:36;9.23;;;4.23;;
16822;SDS011;8528;49.976;11.858;2024-01-27T04:39:03;9.80;;;4.00;;
16822;SDS011;8528;49.976;11.858;2024-01-27T04:41:30;12.90;;;4.47;;
16822;SDS011;8528;49.976;11.858;2024-01-27T04:43:57;9.93;;;4.13;;
16822;SDS011;8528;49.976;11.858;2024-01-27T04:46:25;14.33;;;5.33;;
16822;SDS011;8528;49.976;11.858;2024-01-27T04:48:52;8.27;;;4.23;;
16822;SDS011;8528;49.976;11.858;2024-01-27T04:51:19;8.03;;;4.43;;
16822;SDS011;8528;49.976;11.858;2024-01-27T04:53:46;9.50;;;4.03;;
16822;SDS011;8528;49.976;11.858;2024-01-27T04:56:13;6.07;;;5.00;;
16822;SDS011;8528;49.976;11.858;2024-01-27T04:58:40;8.13;;;4.33;;
16822;SDS011;8528;49.976;11.858;2024-01-27T05:01:07;11.97;;;4.60;;
16822;SDS011;8528;49.976;11.858;2024-01-27T05:03:34;12.50;;;5.17;;
16822;SDS011;8528;49.976;11.858;2024-01-27T05:06:02;10.07;;;4.77;;
16822;SDS011;8528;49.976;11.858;2024-01-27T05:08:29;12.97;;;4.53;;
16822;SDS011;8528;49.976;11.858;2024-01-27T05:10:57;15.13;;;4.63;;
16822;SDS011;8528;49.976;11.858;2024-01-27T05:13:24;11.57;;;4.40;;
16822;SDS011;8528;49.976;11.858;2024-01-27T05:15:51;9.50;;;3.97;;
16822;SDS011;8528;49.976;11.858;2024-01-27T05:18:18;10.40;;;4.20;;
16822;SDS011;8528;49.976;11.858;2024-01-27T05:20:45;13.13;;;4.27;;
16822;SDS011;8528;49.976;11.858;2024-01-27T05:23:12;14.03;;;4.53;;
16822;SDS011;8528;49.976;11.858;2024-01-27T05:25:39;12.17;;;4.50;;
16822;SDS011;8528;49.976;11.858;2024-01-27T05:28:06;9.93;;;4.30;;
16822;SDS011;8528;49.976;11.858;2024-01-27T05:30:32;10.80;;;4.70;;
16822;SDS011;8528;49.976;11.858;2024-01-27T05:32:59;13.27;;;4.60;;
16822;SDS011;8528;49.976;11.858;2024-01-27T05:35:26;10.47;;;3.70;;
16822;SDS011;8528;49.976;11.858;2024-01-27T05:37:54;12.47;;;4.07;;
16822;SDS011;8528;49.976;11.858;2024-01-27T05:40:20;10.83;;;4.00;;
16822;SDS011;8528;49.976;11.858;2024-01-27T05:42:47;9.63;;;4.23;;
16822;SDS011;8528;49.976;11.858;2024-01-27T05:45:15;9.60;;;4.40;;
16822;SDS011;8528;49.976;11.858;2024-01-27T05:47:42;8.30;;;4.73;;
16822;SDS011;8528;49.976;11.858;2024-01-27T05:50:10;8.63;;;4.60;;
16822;SDS011;8528;49.976;11.858;2024-01-27T05:52:36;12.17;;;4.33;;
16822;SDS011;8528;49.976;11.858;2024-01-27T05:55:04;10.33;;;4.97;;
16822;SDS011;8528;49.976;11.858;2024-01-27T05:57:33;8.83;;;4.10;;
16822;SDS011;8528;49.976;11.858;2024-01-27T06:00:00;9.77;;;4.63;;
16822;SDS011;8528;49.976;11.858;2024-01-27T06:02:27;8.07;;;3.97;;
16822;SDS011;8528;49.976;11.858;2024-01-27T06:04:54;12.57;;;4.67;;
16822;SDS011;8528;49.976;11.858;2024-01-27T06:07:20;10.00;;;4.67;;
16822;SDS011;8528;49.976;11.858;2024-01-27T06:09:47;9.27;;;3.93;;
16822;SDS011;8528;49.976;11.858;2024-01-27T06:12:14;11.93;;;4.20;;
16822;SDS011;8528;49.976;11.858;2024-01-27T06:14:41;9.77;;;3.70;;
16822;SDS011;8528;49.976;11.858;2024-01-27T06:17:08;13.23;;;4.23;;
16822;SDS011;8528;49.976;11.858;2024-01-27T06:19:35;12.17;;;4.00;;
16822;SDS011;8528;49.976;11.858;2024-01-27T06:22:04;14.63;;;3.87;;
16822;SDS011;8528;49.976;11.858;2024-01-27T06:24:32;13.00;;;4.23;;
16822;SDS011;8528;49.976;11.858;2024-01-27T06:27:00;17.40;;;4.57;;
16822;SDS011;8528;49.976;11.858;2024-01-27T06:29:27;6.30;;;3.70;;
16822;SDS011;8528;49.976;11.858;2024-01-27T06:31:55;14.47;;;4.67;;
16822;SDS011;8528;49.976;11.858;2024-01-27T06:34:22;16.83;;;4.77;;
16822;SDS011;8528;49.976;11.858;2024-01-27T06:36:49;9.03;;;3.87;;
16822;SDS011;8528;49.976;11.858;2024-01-27T06:39:16;9.87;;;4.03;;
16822;SDS011;8528;49.976;11.858;2024-01-27T06:41:43;12.50;;;4.20;;
16822;SDS011;8528;49.976;11.858;2024-01-27T06:44:09;10.63;;;3.80;;
16822;SDS011;8528;49.976;11.858;2024-01-27T06:46:53;13.10;;;4.07;;
16822;SDS011;8528;49.976;11.858;2024-01-27T06:49:20;9.00;;;3.67;;
16822;SDS011;8528;49.976;11.858;2024-01-27T06:51:47;10.57;;;4.13;;
16822;SDS011;8528;49.976;11.858;2024-01-27T06:54:14;9.53;;;4.13;;
16822;SDS011;8528;49.976;11.858;2024-01-27T06:56:41;11.33;;;3.97;;
16822;SDS011;8528;49.976;11.858;2024-01-27T06:59:08;14.40;;;3.70;;
16822;SDS011;8528;49.976;11.858;2024-01-27T07:01:35;10.17;;;4.23;;
16822;SDS011;8528;49.976;11.858;2024-01-27T07:04:02;10.00;;;4.60;;
16822;SDS011;8528;49.976;11.858;2024-01-27T07:06:29;13.17;;;4.20;;
16822;SDS011;8528;49.976;11.858;2024-01-27T07:08:56;9.93;;;3.73;;
16822;SDS011;8528;49.976;11.858;2024-01-27T07:11:23;9.27;;;4.03;;
16822;SDS011;8528;49.976;11.858;2024-01-27T07:13:50;9.83;;;4.40;;
16822;SDS011;8528;49.976;11.858;2024-01-27T07:16:17;7.27;;;4.20;;
16822;SDS011;8528;49.976;11.858;2024-01-27T07:18:44;14.10;;;4.60;;
16822;SDS011;8528;49.976;11.858;2024-01-27T07:21:14;6.70;;;3.43;;
16822;SDS011;8528;49.976;11.858;2024-01-27T07:23:43;8.40;;;3.67;;
16822;SDS011;8528;49.976;11.858;2024-01-27T07:26:10;8.03;;;4.37;;
16822;SDS011;8528;49.976;11.858;2024-01-27T07:28:38;9.97;;;4.23;;
16822;SDS011;8528;49.976;11.858;2024-01-27T07:31:05;6.43;;;3.50;;
16822;SDS011;8528;49.976;11.858;2024-01-27T07:33:33;9.53;;;3.97;;
16822;SDS011;8528;49.976;11.858;2024-01-27T07:36:00;15.30;;;4.27;;
16822;SDS011;8528;49.976;11.858;2024-01-27T07:38:27;15.70;;;4.50;;
16822;SDS011;8528;49.976;11.858;2024-01-27T07:40:55;10.53;;;3.80;;
16822;SDS011;8528;49.976;11.858;2024-01-27T07:43:22;10.73;;;4.50;;
16822;SDS011;8528;49.976;11.858;2024-01-27T07:45:51;10.27;;;3.87;;
16822;SDS011;8528;49.976;11.858;2024-01-27T07:48:19;10.23;;;3.60;;
16822;SDS011;8528;49.976;11.858;2024-01-27T07:50:47;7.60;;;3.53;;
16822;SDS011;8528;49.976;11.858;2024-01-27T07:53:16;9.10;;;3.27;;
16822;SDS011;8528;49.976;11.858;2024-01-27T07:55:43;12.07;;;3.40;;
16822;SDS011;8528;49.976;11.858;2024-01-27T07:58:10;6.53;;;3.33;;
16822;SDS011;8528;49.976;11.858;2024-01-27T08:00:37;8.23;;;3.20;;
16822;SDS011;8528;49.976;11.858;2024-01-27T08:03:04;10.37;;;3.30;;
16822;SDS011;8528;49.976;11.858;2024-01-27T08:05:32;9.37;;;3.33;;
16822;SDS011;8528;49.976;11.858;2024-01-27T08:07:58;11.63;;;2.90;;
16822;SDS011;8528;49.976;11.858;2024-01-27T08:10:25;10.70;;;3.13;;
16822;SDS011;8528;49.976;11.858;2024-01-27T08:12:52;8.73;;;2.93;;
16822;SDS011;8528;49.976;11.858;2024-01-27T08:15:19;10.80;;;3.10;;
16822;SDS011;8528;49.976;11.858;2024-01-27T08:17:46;7.20;;;3.17;;
16822;SDS011;8528;49.976;11.858;2024-01-27T08:20:13;7.07;;;3.10;;
16822;SDS011;8528;49.976;11.858;2024-01-27T08:22:41;8.30;;;3.07;;
16822;SDS011;8528;49.976;11.858;2024-01-27T08:25:08;8.97;;;2.83;;
16822;SDS011;8528;49.976;11.858;2024-01-27T08:27:35;10.00;;;2.70;;
16822;SDS011;8528;49.976;11.858;2024-01-27T08:30:02;6.07;;;2.60;;
16822;SDS011;8528;49.976;11.858;2024-01-27T08:32:29;12.53;;;2.93;;
16822;SDS011;8528;49.976;11.858;2024-01-27T08:34:56;7.47;;;2.80;;
16822;SDS011;8528;49.976;11.858;2024-01-27T08:37:23;5.40;;;2.63;;
16822;SDS011;8528;49.976;11.858;2024-01-27T08:39:50;6.73;;;2.73;;
16822;SDS011;8528;49.976;11.858;2024-01-27T08:42:17;9.37;;;2.90;;
16822;SDS011;8528;49.976;11.858;2024-01-27T08:44:44;6.13;;;2.73;;
16822;SDS011;8528;49.976;11.858;2024-01-27T08:47:12;5.23;;;2.27;;
16822;SDS011;8528;49.976;11.858;2024-01-27T08:49:39;7.93;;;2.67;;
16822;SDS011;8528;49.976;11.858;2024-01-27T08:52:06;4.97;;;2.00;;
16822;SDS011;8528;49.976;11.858;2024-01-27T08:54:33;6.40;;;2.70;;
16822;SDS011;8528;49.976;11.858;2024-01-27T08:57:00;5.03;;;2.23;;
16822;SDS011;8528;49.976;11.858;2024-01-27T08:59:27;8.37;;;2.50;;
16822;SDS011;8528;49.976;11.858;2024-01-27T09:01:55;5.40;;;2.03;;
16822;SDS011;8528;49.976;11.858;2024-01-27T09:04:22;7.43;;;2.40;;
16822;SDS011;8528;49.976;11.858;2024-01-27T09:06:48;7.90;;;2.30;;
16822;SDS011;8528;49.976;11.858;2024-01-27T09:09:15;5.73;;;2.47;;
16822;SDS011;8528;49.976;11.858;2024-01-27T09:11:42;7.90;;;2.00;;
16822;SDS011;8528;49.976;11.858;2024-01-27T09:14:09;5.50;;;2.07;;
16822;SDS011;8528;49.976;11.858;2024-01-27T09:16:36;4.87;;;2.40;;
16822;SDS011;8528;49.976;11.858;2024-01-27T09:19:03;6.80;;;2.50;;
16822;SDS011;8528;49.976;11.858;2024-01-27T09:21:30;6.00;;;2.23;;
16822;SDS011;8528;49.976;11.858;2024-01-27T09:23:59;9.63;;;2.33;;
16822;SDS011;8528;49.976;11.858;2024-01-27T09:26:28;6.17;;;2.30;;
16822;SDS011;8528;49.976;11.858;2024-01-27T09:28:55;8.03;;;2.17;;
16822;SDS011;8528;49.976;11.858;2024-01-27T09:31:22;5.33;;;2.67;;
16822;SDS011;8528;49.976;11.858;2024-01-27T09:33:50;8.10;;;3.00;;
16822;SDS011;8528;49.976;11.858;2024-01-27T09:36:22;6.53;;;2.40;;
16822;SDS011;8528;49.976;11.858;2024-01-27T09:38:49;5.40;;;2.40;;
16822;SDS011;8528;49.976;11.858;2024-01-27T09:41:16;5.87;;;2.43;;
16822;SDS011;8528;49.976;11.858;2024-01-27T09:43:44;4.47;;;1.93;;
16822;SDS011;8528;49.976;11.858;2024-01-27T09:46:12;7.60;;;2.37;;
16822;SDS011;8528;49.976;11.858;2024-01-27T09:48:39;7.73;;;2.67;;
16822;SDS011;8528;49.976;11.858;2024-01-27T09:51:07;9.80;;;2.43;;
16822;SDS011;8528;49.976;11.858;2024-01-27T09:53:36;7.13;;;2.57;;
16822;SDS011;8528;49.976;11.858;2024-01-27T09:56:03;5.87;;;2.20;;
16822;SDS011;8528;49.976;11.858;2024-01-27T09:58:30;6.60;;;2.40;;
16822;SDS011;8528;49.976;11.858;2024-01-27T10:00:58;7.23;;;2.60;;
16822;SDS011;8528;49.976;11.858;2024-01-27T10:03:27;9.00;;;2.30;;
16822;SDS011;8528;49.976;11.858;2024-01-27T10:05:56;5.63;;;2.30;;
16822;SDS011;8528;49.976;11.858;2024-01-27T10:08:24;6.57;;;2.50;;
16822;SDS011;8528;49.976;11.858;2024-01-27T10:10:53;7.77;;;2.80;;
16822;SDS011;8528;49.976;11.858;2024-01-27T10:13:22;5.47;;;2.10;;
16822;SDS011;8528;49.976;11.858;2024-01-27T10:16:02;6.17;;;2.37;;
16822;SDS011;8528;49.976;11.858;2024-01-27T10:18:30;5.30;;;2.67;;
16822;SDS011;8528;49.976;11.858;2024-01-27T10:20:58;7.30;;;2.63;;
16822;SDS011;8528;49.976;11.858;2024-01-27T10:23:26;7.75;;;2.40;;
16822;SDS011;8528;49.976;11.858;2024-01-27T10:25:53;6.18;;;2.45;;
16822;SDS011;8528;49.976;11.858;2024-01-27T10:28:23;5.25;;;2.10;;
16822;SDS011;8528;49.976;11.858;2024-01-27T10:30:50;6.22;;;2.35;;
16822;SDS011;8528;49.976;11.858;2024-01-27T10:33:17;6.38;;;2.47;;
16822;SDS011;8528;49.976;11.858;2024-01-27T10:35:44;7.40;;;2.47;;
16822;SDS011;8528;49.976;11.858;2024-01-27T10:38:11;8.68;;;2.50;;
16822;SDS011;8528;49.976;11.858;2024-01-27T10:40:38;5.57;;;2.55;;
16822;SDS011;8528;49.976;11.858;2024-01-27T10:45:34;6.97;;;2.40;;
16822;SDS011;8528;49.976;11.858;2024-01-27T10:48:02;7.40;;;2.23;;
16822;SDS011;8528;49.976;11.858;2024-01-27T10:50:30;8.30;;;2.63;;
16822;SDS011;8528;49.976;11.858;2024-01-27T10:53:00;6.33;;;2.53;;
16822;SDS011;8528;49.976;11.858;2024-01-27T10:55:29;7.90;;;2.90;;
16822;SDS011;8528;49.976;11.858;2024-01-27T10:57:57;6.85;;;2.30;;
16822;SDS011;8528;49.976;11.858;2024-01-27T11:00:29;7.38;;;2.50;;
16822;SDS011;8528;49.976;11.858;2024-01-27T11:03:01;8.73;;;2.70;;
16822;SDS011;8528;49.976;11.858;2024-01-27T11:05:29;6.93;;;2.35;;
16822;SDS011;8528;49.976;11.858;2024-01-27T11:07:58;6.10;;;2.80;;
16822;SDS011;8528;49.976;11.858;2024-01-27T11:10:25;7.05;;;2.90;;
16822;SDS011;8528;49.976;11.858;2024-01-27T11:12:53;5.25;;;2.20;;
16822;SDS011;8528;49.976;11.858;2024-01-27T11:15:21;6.47;;;2.90;;
16822;SDS011;8528;49.976;11.858;2024-01-27T11:17:48;6.93;;;2.58;;
16822;SDS011;8528;49.976;11.858;2024-01-27T11:20:15;6.13;;;2.63;;
16822;SDS011;8528;49.976;11.858;2024-01-27T11:22:43;6.10;;;2.43;;
16822;SDS011;8528;49.976;11.858;2024-01-27T11:27:36;6.03;;;2.67;;
16822;SDS011;8528;49.976;11.858;2024-01-27T11:30:04;7.43;;;2.70;;
16822;SDS011;8528;49.976;11.858;2024-01-27T11:32:31;8.43;;;2.70;;
16822;SDS011;8528;49.976;11.858;2024-01-27T11:35:00;6.17;;;2.33;;
16822;SDS011;8528;49.976;11.858;2024-01-27T11:37:30;6.30;;;2.37;;
16822;SDS011;8528;49.976;11.858;2024-01-27T11:40:04;7.37;;;2.60;;
16822;SDS011;8528;49.976;11.858;2024-01-27T11:42:32;9.90;;;2.73;;
16822;SDS011;8528;49.976;11.858;2024-01-27T11:44:59;6.57;;;2.70;;
16822;SDS011;8528;49.976;11.858;2024-01-27T11:47:27;5.80;;;2.50;;
16822;SDS011;8528;49.976;11.858;2024-01-27T11:49:54;7.00;;;2.30;;
16822;SDS011;8528;49.976;11.858;2024-01-27T11:52:24;7.10;;;2.43;;
16822;SDS011;8528;49.976;11.858;2024-01-27T11:54:55;6.17;;;2.40;;
16822;SDS011;8528;49.976;11.858;2024-01-27T11:57:25;5.97;;;2.37;;
16822;SDS011;8528;49.976;11.858;2024-01-27T11:59:53;5.40;;;2.45;;
16822;SDS011;8528;49.976;11.858;2024-01-27T12:02:20;7.45;;;2.60;;
16822;SDS011;8528;49.976;11.858;2024-01-27T12:04:48;7.70;;;2.60;;
16822;SDS011;8528;49.976;11.858;2024-01-27T12:07:15;9.98;;;3.15;;
16822;SDS011;8528;49.976;11.858;2024-01-27T12:09:50;4.28;;;2.47;;
16822;SDS011;8528;49.976;11.858;2024-01-27T12:12:17;6.88;;;2.80;;
16822;SDS011;8528;49.976;11.858;2024-01-27T12:14:45;6.30;;;2.30;;
16822;SDS011;8528;49.976;11.858;2024-01-27T12:17:13;5.45;;;2.10;;
16822;SDS011;8528;49.976;11.858;2024-01-27T12:19:45;6.95;;;2.85;;
16822;SDS011;8528;49.976;11.858;2024-01-27T12:22:23;6.47;;;2.45;;
16822;SDS011;8528;49.976;11.858;2024-01-27T12:24:56;4.88;;;2.50;;
16822;SDS011;8528;49.976;11.858;2024-01-27T12:27:36;5.90;;;2.65;;
16822;SDS011;8528;49.976;11.858;2024-01-27T12:30:04;4.95;;;2.50;;
16822;SDS011;8528;49.976;11.858;2024-01-27T12:32:32;7.85;;;2.83;;
16822;SDS011;8528;49.976;11.858;2024-01-27T12:34:58;7.75;;;2.63;;
16822;SDS011;8528;49.976;11.858;2024-01-27T12:37:31;5.70;;;2.50;;
16822;SDS011;8528;49.976;11.858;2024-01-27T12:39:57;6.32;;;2.47;;
16822;SDS011;8528;49.976;11.858;2024-01-27T12:42:24;6.30;;;2.35;;
16822;SDS011;8528;49.976;11.858;2024-01-27T12:44:51;5.97;;;2.63;;
16822;SDS011;8528;49.976;11.858;2024-01-27T12:47:18;7.15;;;2.97;;
16822;SDS011;8528;49.976;11.858;2024-01-27T12:49:46;6.72;;;2.25;;
16822;SDS011;8528;49.976;11.858;2024-01-27T12:52:34;6.30;;;2.47;;
16822;SDS011;8528;49.976;11.858;2024-01-27T12:55:01;6.20;;;2.22;;
16822;SDS011;8528;49.976;11.858;2024-01-27T12:57:27;6.13;;;2.88;;
16822;SDS011;8528;49.976;11.858;2024-01-27T12:59:55;7.22;;;2.65;;
16822;SDS011;8528;49.976;11.858;2024-01-27T13:02:22;5.85;;;3.58;;
16822;SDS011;8528;49.976;11.858;2024-01-27T13:04:50;8.60;;;3.88;;
16822;SDS011;8528;49.976;11.858;2024-01-27T13:07:16;6.90;;;4.47;;
16822;SDS011;8528;49.976;11.858;2024-01-27T13:09:44;7.83;;;3.00;;
16822;SDS011;8528;49.976;11.858;2024-01-27T13:12:10;7.07;;;3.40;;
16822;SDS011;8528;49.976;11.858;2024-01-27T13:14:37;4.73;;;2.43;;
16822;SDS011;8528;49.976;11.858;2024-01-27T13:17:04;7.70;;;2.50;;
16822;SDS011;8528;49.976;11.858;2024-01-27T13:19:31;5.67;;;2.60;;
16822;SDS011;8528;49.976;11.858;2024-01-27T13:21:58;6.43;;;2.30;;
16822;SDS011;8528;49.976;11.858;2024-01-27T13:24:25;5.40;;;2.07;;
16822;SDS011;8528;49.976;11.858;2024-01-27T13:26:52;6.50;;;2.67;;
16822;SDS011;8528;49.976;11.858;2024-01-27T13:29:19;8.07;;;2.70;;
16822;SDS011;8528;49.976;11.858;2024-01-27T13:31:46;7.73;;;2.77;;
16822;SDS011;8528;49.976;11.858;2024-01-27T13:34:13;7.67;;;2.83;;
16822;SDS011;8528;49.976;11.858;2024-01-27T13:36:41;5.00;;;2.33;;
16822;SDS011;8528;49.976;11.858;2024-01-27T13:39:08;7.47;;;2.87;;
16822;SDS011;8528;49.976;11.858;2024-01-27T13:41:36;6.47;;;2.57;;
16822;SDS011;8528;49.976;11.858;2024-01-27T13:44:04;8.07;;;2.67;;
16822;SDS011;8528;49.976;11.858;2024-01-27T13:46:32;7.17;;;3.30;;
16822;SDS011;8528;49.976;11.858;2024-01-27T13:48:58;5.83;;;2.83;;
16822;SDS011;8528;49.976;11.858;2024-01-27T13:51:25;6.70;;;2.63;;
16822;SDS011;8528;49.976;11.858;2024-01-27T13:53:53;8.57;;;3.40;;
16822;SDS011;8528;49.976;11.858;2024-01-27T13:56:19;7.77;;;2.77;;
16822;SDS011;8528;49.976;11.858;2024-01-27T13:58:46;7.83;;;2.90;;
16822;SDS011;8528;49.976;11.858;2024-01-27T14:01:13;7.13;;;2.47;;
16822;SDS011;8528;49.976;11.858;2024-01-27T14:03:40;5.60;;;2.67;;
16822;SDS011;8528;49.976;11.858;2024-01-27T14:06:07;6.63;;;2.70;;
16822;SDS011;8528;49.976;11.858;2024-01-27T14:08:39;10.07;;;5.83;;
16822;SDS011;8528;49.976;11.858;2024-01-27T14:11:06;8.03;;;3.90;;
16822;SDS011;8528;49.976;11.858;2024-01-27T14:13:33;6.17;;;3.13;;
16822;SDS011;8528;49.976;11.858;2024-01-27T14:16:00;5.83;;;2.30;;
16822;SDS011;8528;49.976;11.858;2024-01-27T14:18:26;8.37;;;2.43;;
16822;SDS011;8528;49.976;11.858;2024-01-27T14:20:55;7.13;;;3.47;;
16822;SDS011;8528;49.976;11.858;2024-01-27T14:23:22;6.77;;;2.87;;
16822;SDS011;8528;49.976;11.858;2024-01-27T14:25:49;9.27;;;2.90;;
16822;SDS011;8528;49.976;11.858;2024-01-27T14:28:16;5.67;;;2.50;;
16822;SDS011;8528;49.976;11.858;2024-01-27T14:30:43;5.93;;;2.53;;
16822;SDS011;8528;49.976;11.858;2024-01-27T14:33:11;7.47;;;2.80;;
16822;SDS011;8528;49.976;11.858;2024-01-27T14:35:38;7.57;;;3.40;;
16822;SDS011;8528;49.976;11.858;2024-01-27T14:38:06;14.27;;;11.80;;
16822;SDS011;8528;49.976;11.858;2024-01-27T14:40:35;6.70;;;2.93;;
16822;SDS011;8528;49.976;11.858;2024-01-27T14:43:04;5.23;;;3.27;;
16822;SDS011;8528;49.976;11.858;2024-01-27T14:45:35;6.10;;;3.10;;
16822;SDS011;8528;49.976;11.858;2024-01-27T14:48:02;5.23;;;2.70;;
16822;SDS011;8528;49.976;11.858;2024-01-27T14:50:30;8.60;;;3.73;;